createdAt,value
2022-08-07T00:06:17.321Z,48.48
2022-08-07T00:08:47.033Z,48.64
2022-08-07T00:11:13.869Z,48.44
2022-08-07T00:13:48.110Z,48.03
2022-08-07T00:16:17.398Z,48.27
2022-08-07T00:18:48.513Z,48.06
2022-08-07T00:21:57.179Z,48.15
2022-08-07T00:24:01.689Z,47.84
2022-08-07T00:26:49.199Z,47.98
2022-08-07T00:29:15.312Z,48.08
2022-08-07T00:31:42.444Z,47.96
2022-08-07T00:34:09.601Z,47.99
2022-08-07T00:36:42.728Z,48.00
2022-08-07T00:39:12.788Z,48.01
2022-08-07T00:42:02.282Z,48.04
2022-08-07T00:44:33.263Z,47.69
2022-08-07T00:47:01.066Z,47.86
2022-08-07T00:50:20.738Z,47.75
2022-08-07T00:52:14.954Z,47.56
2022-08-07T00:54:46.864Z,47.49
2022-08-07T00:57:22.239Z,47.30
2022-08-07T00:59:49.246Z,47.04
2022-08-07T01:02:28.772Z,47.01
2022-08-07T01:04:58.250Z,46.74
2022-08-07T01:07:27.646Z,46.67
2022-08-07T01:10:06.765Z,46.38
2022-08-07T01:12:39.047Z,46.24
2022-08-07T01:15:06.579Z,46.09
2022-08-07T01:17:38.369Z,46.12
2022-08-07T01:20:17.120Z,46.14
2022-08-07T01:22:54.147Z,45.99
2022-08-07T01:25:54.132Z,45.99
2022-08-07T01:28:14.701Z,46.29
2022-08-07T01:30:42.187Z,46.26
2022-08-07T01:33:08.912Z,46.19
2022-08-07T01:35:52.867Z,46.21
2022-08-07T01:38:25.569Z,46.07
2022-08-07T01:40:58.862Z,46.22
2022-08-07T01:43:26.942Z,46.31
2022-08-07T01:46:02.683Z,46.37
2022-08-07T01:48:30.358Z,46.39
2022-08-07T01:51:24.483Z,46.25
2022-08-07T01:54:11.745Z,46.37
2022-08-07T01:56:49.138Z,46.34
2022-08-07T01:59:21.319Z,46.78
2022-08-07T02:01:59.956Z,46.76
2022-08-07T02:04:52.669Z,46.76
2022-08-07T02:07:24.694Z,46.98
2022-08-07T02:10:04.482Z,47.02
2022-08-07T02:12:34.168Z,47.03
2022-08-07T02:15:01.670Z,46.75
2022-08-07T02:17:34.385Z,46.83
2022-08-07T02:20:05.718Z,46.80
2022-08-07T02:22:41.100Z,46.68
2022-08-07T02:25:17.247Z,46.68
2022-08-07T02:27:52.288Z,46.61
2022-08-07T02:30:19.979Z,46.48
2022-08-07T02:33:00.736Z,46.62
2022-08-07T02:36:29.914Z,46.72
2022-08-07T02:38:28.153Z,46.79
2022-08-07T02:40:58.699Z,46.73
2022-08-07T02:43:26.877Z,46.54
2022-08-07T02:45:58.394Z,46.77
2022-08-07T02:48:28.231Z,46.51
2022-08-07T02:50:55.781Z,46.69
2022-08-07T02:53:27.628Z,46.45
2022-08-07T02:56:04.137Z,46.37
2022-08-07T02:58:33.866Z,46.66
2022-08-07T03:01:02.310Z,46.21
2022-08-07T03:03:42.105Z,46.30
2022-08-07T03:06:26.065Z,46.20
2022-08-07T03:09:01.982Z,46.29
2022-08-07T03:11:29.596Z,46.12
2022-08-07T03:14:01.815Z,46.02
2022-08-07T03:16:30.500Z,45.99
2022-08-07T03:18:58.319Z,45.86
2022-08-07T03:21:25.563Z,45.63
2022-08-07T03:24:18.486Z,45.94
2022-08-07T03:26:50.883Z,45.60
2022-08-07T03:29:18.483Z,45.55
2022-08-07T03:31:46.686Z,45.77
2022-08-07T03:34:18.247Z,46.15
2022-08-07T03:36:49.599Z,46.10
2022-08-07T03:39:17.253Z,46.24
2022-08-07T03:42:05.656Z,46.21
2022-08-07T03:44:34.782Z,46.39
2022-08-07T03:47:13.378Z,46.34
2022-08-07T03:49:47.822Z,46.42
2022-08-07T03:52:22.878Z,46.67
2022-08-07T03:54:57.347Z,46.80
2022-08-07T03:58:33.726Z,46.75
2022-08-07T04:00:14.854Z,46.65
2022-08-07T04:02:43.112Z,46.97
2022-08-07T04:05:14.351Z,47.40
2022-08-07T04:07:46.679Z,47.48
2022-08-07T04:10:15.367Z,47.70
2022-08-07T04:12:47.280Z,48.00
2022-08-07T04:15:15.043Z,48.23
2022-08-07T04:18:31.274Z,48.20
2022-08-07T04:20:29.701Z,48.04
2022-08-07T04:23:01.649Z,48.32
2022-08-07T04:25:29.320Z,48.28
2022-08-07T04:27:59.231Z,48.45
2022-08-07T04:30:43.878Z,48.45
2022-08-07T04:33:15.739Z,47.79
2022-08-07T04:35:50.070Z,47.82
2022-08-07T04:38:17.515Z,47.89
2022-08-07T04:40:52.159Z,47.51
2022-08-07T04:44:09.828Z,47.66
2022-08-07T04:46:34.406Z,47.64
2022-08-07T04:49:25.498Z,47.63
2022-08-07T04:52:51.758Z,47.81
2022-08-07T04:58:11.571Z,47.72
2022-08-07T04:59:09.144Z,47.39
2022-08-07T05:01:45.280Z,47.46
2022-08-07T05:04:17.772Z,47.26
2022-08-07T05:07:01.103Z,47.27
2022-08-07T05:10:22.474Z,47.40
2022-08-07T05:12:58.494Z,47.55
2022-08-07T05:15:36.250Z,47.55
2022-08-07T05:18:19.396Z,47.44
2022-08-07T05:20:51.428Z,47.71
2022-08-07T05:23:29.950Z,47.79
2022-08-07T05:26:13.147Z,47.51
2022-08-07T05:28:46.631Z,47.26
2022-08-07T05:31:18.809Z,46.83
2022-08-07T05:34:01.213Z,46.73
2022-08-07T05:36:35.271Z,46.85
2022-08-07T05:40:05.773Z,46.48
2022-08-07T05:42:01.209Z,46.07
2022-08-07T05:44:31.002Z,46.01
2022-08-07T05:46:58.179Z,45.76
2022-08-07T05:49:27.054Z,46.05
2022-08-07T05:52:08.395Z,45.91
2022-08-07T05:54:53.224Z,45.74
2022-08-07T05:57:26.725Z,46.00
2022-08-07T05:59:58.572Z,45.98
2022-08-07T06:02:29.209Z,45.62
2022-08-07T06:05:00.304Z,45.60
2022-08-07T06:08:09.334Z,45.46
2022-08-07T06:10:15.310Z,45.45
2022-08-07T06:12:42.198Z,45.29
2022-08-07T06:15:09.932Z,45.11
2022-08-07T06:17:52.572Z,45.04
2022-08-07T06:20:31.831Z,44.96
2022-08-07T06:23:02.118Z,45.14
2022-08-07T06:25:54.013Z,45.02
2022-08-07T06:28:27.542Z,45.21
2022-08-07T06:30:55.901Z,44.86
2022-08-07T06:33:22.958Z,44.82
2022-08-07T06:36:12.918Z,45.07
2022-08-07T06:38:36.513Z,45.08
2022-08-07T06:41:07.712Z,44.70
2022-08-07T06:43:39.838Z,44.65
2022-08-07T06:46:13.083Z,44.21
2022-08-07T06:48:41.897Z,44.13
2022-08-07T06:51:13.203Z,44.37
2022-08-07T06:55:29.550Z,43.92
2022-08-07T06:56:49.433Z,43.63
2022-08-07T07:00:13.862Z,43.37
2022-08-07T07:02:48.524Z,43.12
2022-08-07T07:05:03.683Z,42.82
2022-08-07T07:08:00.170Z,42.47
2022-08-07T07:10:21.268Z,42.42
2022-08-07T07:12:54.738Z,41.47
2022-08-07T07:15:26.213Z,41.01
2022-08-07T07:18:08.736Z,40.68
2022-08-07T07:20:38.436Z,41.05
2022-08-07T07:24:09.210Z,41.01
2022-08-07T07:26:35.787Z,40.93
2022-08-07T07:29:56.988Z,40.99
2022-08-07T07:31:48.413Z,40.42
2022-08-07T07:34:20.598Z,40.39
2022-08-07T07:36:53.815Z,39.88
2022-08-07T07:39:22.086Z,39.70
2022-08-07T07:42:12.960Z,39.32
2022-08-07T07:44:39.860Z,39.40
2022-08-07T07:47:14.365Z,38.40
2022-08-07T07:50:31.386Z,38.51
2022-08-07T07:52:37.423Z,38.00
2022-08-07T07:55:08.239Z,38.06
2022-08-07T07:57:51.816Z,38.38
2022-08-07T08:00:29.136Z,38.20
2022-08-07T08:03:05.722Z,38.29
2022-08-07T08:05:43.233Z,37.94
2022-08-07T08:08:35.238Z,38.07
2022-08-07T08:11:09.321Z,37.88
2022-08-07T08:13:53.848Z,37.96
2022-08-07T08:16:26.616Z,37.58
2022-08-07T08:18:56.962Z,37.65
2022-08-07T08:21:55.914Z,37.53
2022-08-07T08:24:51.253Z,37.01
2022-08-07T08:27:25.669Z,36.94
2022-08-07T08:30:06.722Z,37.49
2022-08-07T08:32:38.546Z,36.87
2022-08-07T08:35:10.877Z,37.40
2022-08-07T08:37:59.788Z,37.24
2022-08-07T08:40:33.001Z,37.33
2022-08-07T08:43:08.697Z,37.19
2022-08-07T08:45:59.299Z,36.97
2022-08-07T08:48:42.626Z,36.34
2022-08-07T08:51:14.642Z,36.17
2022-08-07T08:54:08.351Z,35.78
2022-08-07T08:56:48.197Z,36.04
2022-08-07T08:59:25.655Z,36.02
2022-08-07T09:02:14.524Z,36.20
2022-08-07T09:05:14.696Z,35.93
2022-08-07T09:07:58.228Z,36.19
2022-08-07T09:10:44.917Z,34.98
2022-08-07T09:13:37.059Z,35.31
2022-08-07T09:16:21.956Z,34.53
2022-08-07T09:18:58.564Z,34.84
2022-08-07T09:21:57.777Z,34.48
2022-08-07T09:25:00.260Z,35.01
2022-08-07T09:27:30.944Z,36.10
2022-08-07T09:30:09.238Z,36.56
2022-08-07T09:32:56.167Z,36.75
2022-08-07T09:36:04.125Z,36.24
2022-08-07T09:38:53.732Z,36.43
2022-08-07T09:41:36.320Z,36.48
2022-08-07T09:44:58.751Z,36.14
2022-08-07T09:47:57.883Z,36.60
2022-08-07T09:51:02.003Z,36.27
2022-08-07T09:53:40.580Z,36.31
2022-08-07T09:56:37.455Z,36.28
2022-08-07T09:59:46.242Z,36.44
2022-08-07T10:02:16.303Z,36.55
2022-08-07T10:04:45.885Z,36.17
2022-08-07T10:07:39.927Z,36.58
2022-08-07T10:10:21.470Z,36.56
2022-08-07T10:14:00.510Z,36.99
2022-08-07T10:16:34.980Z,36.87
2022-08-07T10:19:32.649Z,36.44
2022-08-07T10:22:33.857Z,36.12
2022-08-07T10:25:42.173Z,36.70
2022-08-07T10:28:37.483Z,36.41
2022-08-07T10:31:19.177Z,36.69
2022-08-07T10:34:05.669Z,37.54
2022-08-07T10:36:43.569Z,37.79
2022-08-07T10:39:42.204Z,37.57
2022-08-07T10:42:36.562Z,38.10
2022-08-07T10:45:45.155Z,38.27
2022-08-07T10:48:23.885Z,38.49
2022-08-07T10:51:16.942Z,39.08
2022-08-07T10:54:18.016Z,39.35
2022-08-07T10:57:03.458Z,39.56
2022-08-07T11:00:36.701Z,39.68
2022-08-07T11:03:15.706Z,40.70
2022-08-07T11:05:56.241Z,41.14
2022-08-07T11:08:41.450Z,41.66
2022-08-07T11:11:13.200Z,42.03
2022-08-07T11:14:43.718Z,42.79
2022-08-07T11:16:38.737Z,43.50
2022-08-07T11:19:21.701Z,43.69
2022-08-07T11:22:27.365Z,43.91
2022-08-07T11:25:16.756Z,44.40
2022-08-07T11:28:01.317Z,44.39
2022-08-07T11:30:42.150Z,44.82
2022-08-07T11:33:59.123Z,45.42
2022-08-07T11:36:49.929Z,45.78
2022-08-07T11:39:59.992Z,45.94
2022-08-07T11:42:45.017Z,46.08
2022-08-07T11:45:50.224Z,46.78
2022-08-07T11:48:29.418Z,47.28
2022-08-07T11:51:41.938Z,47.63
2022-08-07T11:54:30.098Z,47.43
2022-08-07T11:57:57.818Z,47.47
2022-08-07T12:00:27.580Z,47.40
2022-08-07T12:03:04.328Z,47.40
2022-08-07T12:05:49.830Z,47.53
2022-08-07T12:08:25.628Z,47.45
2022-08-07T12:11:21.046Z,47.58
2022-08-07T12:14:08.511Z,48.30
2022-08-07T12:16:42.778Z,48.45
2022-08-07T12:19:56.354Z,48.80
2022-08-07T12:22:37.637Z,48.99
2022-08-07T12:26:05.559Z,49.19
2022-08-07T12:28:45.070Z,49.24
2022-08-07T12:31:53.032Z,49.37
2022-08-07T12:34:19.302Z,49.18
2022-08-07T12:36:49.498Z,49.40
2022-08-07T12:39:43.751Z,49.64
2022-08-07T12:42:07.602Z,49.66
2022-08-07T12:44:35.135Z,49.83
2022-08-07T12:47:27.172Z,49.63
2022-08-07T12:50:38.113Z,49.76
2022-08-07T12:53:22.525Z,50.02
2022-08-07T12:56:10.279Z,50.60
2022-08-07T12:58:39.918Z,50.46
2022-08-07T13:01:33.967Z,50.65
2022-08-07T13:04:05.507Z,50.73
2022-08-07T13:07:00.696Z,50.96
2022-08-07T13:10:37.339Z,50.71
2022-08-07T13:13:46.703Z,50.35
2022-08-07T13:17:09.392Z,50.31
2022-08-07T13:19:57.892Z,50.37
2022-08-07T13:22:33.167Z,49.93
2022-08-07T13:25:15.266Z,48.76
2022-08-07T13:28:12.433Z,47.03
2022-08-07T13:30:49.031Z,46.32
2022-08-07T13:34:32.937Z,46.24
2022-08-07T13:36:17.678Z,45.50
2022-08-07T13:39:11.194Z,45.35
2022-08-07T13:41:47.609Z,44.00
2022-08-07T13:44:18.693Z,44.08
2022-08-07T13:46:57.016Z,43.92
2022-08-07T13:50:32.542Z,43.17
2022-08-07T13:52:32.508Z,43.46
2022-08-07T13:55:00.604Z,42.40
2022-08-07T13:57:38.020Z,42.60
2022-08-07T14:00:07.927Z,41.98
2022-08-07T14:02:51.134Z,42.34
2022-08-07T14:05:23.323Z,42.08
2022-08-07T14:07:59.604Z,41.67
2022-08-07T14:10:42.273Z,41.99
2022-08-07T14:13:16.195Z,41.67
2022-08-07T14:15:44.890Z,41.70
2022-08-07T14:18:28.937Z,42.06
2022-08-07T14:21:20.976Z,42.28
2022-08-07T14:24:08.797Z,42.56
2022-08-07T14:26:50.380Z,42.43
2022-08-07T14:30:07.820Z,41.73
2022-08-07T14:32:09.538Z,41.54
2022-08-07T14:34:46.360Z,41.94
2022-08-07T14:37:16.138Z,41.56
2022-08-07T14:40:16.165Z,41.13
2022-08-07T14:42:33.741Z,41.60
2022-08-07T14:45:21.795Z,41.35
2022-08-07T14:47:50.274Z,41.49
2022-08-07T14:50:19.887Z,41.50
2022-08-07T14:52:47.783Z,41.45
2022-08-07T14:55:17.756Z,41.67
2022-08-07T15:00:35.084Z,40.89
2022-08-07T15:03:18.866Z,40.89
2022-08-07T15:05:54.661Z,41.40
2022-08-07T15:08:54.508Z,41.64
2022-08-07T15:11:50.790Z,41.39
2022-08-07T15:14:17.131Z,41.26
2022-08-07T15:16:54.560Z,41.77
2022-08-07T15:25:16.690Z,40.98
2022-08-07T15:30:36.480Z,41.94
2022-08-07T15:33:33.452Z,41.62
2022-08-07T15:36:05.678Z,42.21
2022-08-07T15:44:15.263Z,42.65
2022-08-07T15:46:51.909Z,42.61
2022-08-07T15:49:25.435Z,42.61
2022-08-07T15:54:26.519Z,42.07
2022-08-07T15:56:58.048Z,41.94
2022-08-07T15:59:39.670Z,42.24
2022-08-07T16:02:15.171Z,41.84
2022-08-07T16:04:42.675Z,41.48
2022-08-07T16:08:30.579Z,41.79
2022-08-07T16:10:20.900Z,41.58
2022-08-07T16:13:17.792Z,41.50
2022-08-07T16:16:43.358Z,41.89
2022-08-07T16:19:09.592Z,42.12
2022-08-07T16:22:08.733Z,42.12
2022-08-07T16:25:07.597Z,42.24
2022-08-07T16:27:57.098Z,42.58
2022-08-07T16:30:32.049Z,42.71
2022-08-07T16:34:01.993Z,42.47
2022-08-07T16:36:07.518Z,42.40
2022-08-07T16:39:01.900Z,42.29
2022-08-07T16:41:41.185Z,42.05
2022-08-07T16:45:14.831Z,41.58
2022-08-07T16:47:51.488Z,41.81
2022-08-07T16:50:38.957Z,41.79
2022-08-07T16:54:01.644Z,41.86
2022-08-07T16:56:42.536Z,41.57
2022-08-07T16:59:44.174Z,41.88
2022-08-07T17:02:50.872Z,42.05
2022-08-07T17:05:24.113Z,41.83
2022-08-07T17:08:00.093Z,42.13
2022-08-07T17:10:38.427Z,42.12
2022-08-07T17:14:17.843Z,41.98
2022-08-07T17:16:33.869Z,41.82
2022-08-07T17:19:15.840Z,41.61
2022-08-07T17:21:55.424Z,41.75
2022-08-07T17:24:49.992Z,41.89
2022-08-07T17:27:32.572Z,41.46
2022-08-07T17:30:16.009Z,41.70
2022-08-07T17:32:53.439Z,42.08
2022-08-07T17:35:49.534Z,41.77
2022-08-07T17:38:33.705Z,41.61
2022-08-07T17:42:04.401Z,41.67
2022-08-07T17:44:33.758Z,41.47
2022-08-07T17:47:16.857Z,41.52
2022-08-07T17:50:00.511Z,41.35
2022-08-07T17:53:06.272Z,40.90
2022-08-07T17:56:00.279Z,41.04
2022-08-07T17:58:51.103Z,40.58
2022-08-07T18:01:58.147Z,40.70
2022-08-07T18:04:41.162Z,40.59
2022-08-07T18:07:37.681Z,40.08
2022-08-07T18:12:07.518Z,39.66
2022-08-07T18:13:50.168Z,39.51
2022-08-07T18:16:31.194Z,39.37
2022-08-07T18:21:10.089Z,39.49
2022-08-07T18:22:15.044Z,39.21
2022-08-07T18:24:51.129Z,39.14
2022-08-07T18:27:42.010Z,39.09
2022-08-07T18:31:01.504Z,38.78
2022-08-07T18:33:58.305Z,38.63
2022-08-07T18:37:09.785Z,38.45
2022-08-07T18:40:18.233Z,38.27
2022-08-07T18:43:10.625Z,38.42
2022-08-07T18:46:24.620Z,38.67
2022-08-07T18:50:29.986Z,39.04
2022-08-07T18:52:34.749Z,38.79
2022-08-07T18:54:58.057Z,38.80
2022-08-07T18:57:58.764Z,39.04
2022-08-07T19:00:55.176Z,39.32
2022-08-07T19:03:38.763Z,39.07
2022-08-07T19:06:16.479Z,39.21
2022-08-07T19:09:09.286Z,38.92
2022-08-07T19:12:12.846Z,38.94
2022-08-07T19:14:42.785Z,38.92
2022-08-07T19:17:59.034Z,38.55
2022-08-07T19:20:29.641Z,38.46
2022-08-07T19:23:56.916Z,38.75
2022-08-07T19:26:25.068Z,38.71
2022-08-07T19:30:55.743Z,38.58
2022-08-07T19:32:07.918Z,38.47
2022-08-07T19:34:40.491Z,38.42
2022-08-07T19:37:17.761Z,38.61
2022-08-07T19:39:57.513Z,38.71
2022-08-07T20:16:15.732Z,37.82
2022-08-07T20:18:58.256Z,37.55
2022-08-07T20:21:29.144Z,37.52
2022-08-07T20:24:16.911Z,37.41
2022-08-07T20:26:50.141Z,37.59
2022-08-07T20:29:46.822Z,37.60
2022-08-07T20:32:11.408Z,37.55
2022-08-07T20:34:51.683Z,37.71
2022-08-07T20:37:47.039Z,37.84
2022-08-07T20:40:33.084Z,38.22
2022-08-07T20:43:01.937Z,38.30
2022-08-07T20:45:33.750Z,38.71
2022-08-07T20:48:28.954Z,38.60
2022-08-07T20:51:02.637Z,38.58
2022-08-07T20:54:01.924Z,38.53
2022-08-07T20:56:29.324Z,38.61
2022-08-07T20:58:59.033Z,39.05
2022-08-07T21:01:26.070Z,38.67
2022-08-07T21:04:19.489Z,38.94
2022-08-07T21:06:53.709Z,39.05
2022-08-07T21:09:24.608Z,38.97
2022-08-07T21:11:57.246Z,38.67
2022-08-07T21:14:33.060Z,38.52
2022-08-07T21:18:00.460Z,38.37
2022-08-07T21:20:04.983Z,37.90
2022-08-07T21:22:44.711Z,38.03
2022-08-07T21:25:20.993Z,37.85
2022-08-07T21:28:01.705Z,37.78
2022-08-07T21:30:56.400Z,37.57
2022-08-07T21:33:46.799Z,37.48
2022-08-07T21:36:42.715Z,37.48
2022-08-07T21:39:51.839Z,37.44
2022-08-07T21:42:49.047Z,37.41
2022-08-07T21:46:08.734Z,37.23
2022-08-07T21:48:28.009Z,37.31
2022-08-07T21:51:02.226Z,37.27
2022-08-07T21:53:46.410Z,37.18
2022-08-07T21:56:36.139Z,37.34
2022-08-07T21:59:21.307Z,37.33
2022-08-07T22:02:10.769Z,37.28
2022-08-07T22:04:53.950Z,37.35
2022-08-07T22:07:31.763Z,37.18
2022-08-07T22:10:24.574Z,37.46
2022-08-07T22:12:55.026Z,37.41
2022-08-07T22:16:44.357Z,37.70
2022-08-07T22:18:31.290Z,37.78
2022-08-07T22:21:04.195Z,37.73
2022-08-07T22:23:56.053Z,37.37
2022-08-07T22:26:44.368Z,37.63
2022-08-07T22:29:47.398Z,37.90
2022-08-07T22:32:42.382Z,37.67
2022-08-07T22:35:11.682Z,37.62
2022-08-07T22:38:04.225Z,37.65
2022-08-07T22:40:53.154Z,37.88
2022-08-07T22:43:24.745Z,37.93
2022-08-07T22:47:02.080Z,37.96
2022-08-07T22:49:15.925Z,37.94
2022-08-07T22:51:48.979Z,37.83
2022-08-07T22:54:31.509Z,38.13
2022-08-07T22:57:25.992Z,38.19
2022-08-07T23:00:08.830Z,38.05
2022-08-07T23:02:56.029Z,37.75
2022-08-07T23:06:09.576Z,37.88
2022-08-07T23:08:51.609Z,37.88
2022-08-07T23:11:45.992Z,37.66
2022-08-07T23:14:25.755Z,37.71
2022-08-07T23:17:04.450Z,37.65
2022-08-07T23:20:15.454Z,37.58
2022-08-07T23:22:56.276Z,37.95
2022-08-07T23:25:41.684Z,37.68
2022-08-07T23:28:20.260Z,37.87
2022-08-07T23:31:07.177Z,37.95
2022-08-07T23:34:35.435Z,37.79
2022-08-07T23:37:20.422Z,37.80
2022-08-07T23:40:07.617Z,37.89
2022-08-07T23:42:46.773Z,37.79
2022-08-07T23:45:33.074Z,37.91
2022-08-07T23:48:50.882Z,38.13
2022-08-07T23:53:00.428Z,38.18
2022-08-07T23:54:44.375Z,38.35
2022-08-07T23:57:24.551Z,38.19
